createdAt,value
2023-02-12T00:04:59.348Z,3.30
2023-02-12T00:10:02.145Z,3.15
2023-02-12T00:15:06.473Z,3.30
2023-02-12T00:20:09.420Z,3.15
2023-02-12T00:25:14.126Z,3.20
2023-02-12T00:30:17.253Z,3.80
2023-02-12T00:35:19.916Z,4.03
2023-02-12T00:40:25.697Z,3.90
2023-02-12T00:45:28.330Z,4.10
2023-02-12T00:50:31.948Z,4.10
2023-02-12T00:55:36.247Z,4.28
2023-02-12T01:00:39.102Z,4.35
2023-02-12T01:05:42.156Z,4.57
2023-02-12T01:10:45.424Z,4.33
2023-02-12T01:15:47.945Z,3.97
2023-02-12T01:20:50.887Z,4.63
2023-02-12T01:25:54.014Z,5.17
2023-02-12T01:30:56.967Z,4.63
2023-02-12T01:35:59.564Z,3.93
2023-02-12T01:41:10.806Z,4.17
2023-02-12T01:46:14.741Z,5.20
2023-02-12T01:51:20.556Z,3.80
2023-02-12T01:56:24.146Z,3.50
2023-02-12T02:01:29.977Z,2.97
2023-02-12T02:06:44.551Z,3.00
2023-02-12T02:12:05.967Z,2.70
2023-02-12T02:17:23.752Z,3.00
2023-02-12T02:22:40.165Z,3.03
2023-02-12T02:27:54.678Z,3.20
2023-02-12T02:33:22.461Z,4.00
2023-02-12T02:38:57.313Z,3.70
2023-02-12T02:44:03.941Z,4.57
2023-02-12T02:49:13.383Z,5.10
2023-02-12T02:54:25.223Z,4.67
2023-02-12T02:59:34.507Z,5.13
2023-02-12T03:04:42.062Z,3.47
2023-02-12T03:09:54.389Z,3.63
2023-02-12T03:15:22.315Z,3.53
2023-02-12T03:20:29.349Z,3.17
2023-02-12T03:25:42.706Z,3.27
2023-02-12T03:30:52.356Z,2.80
2023-02-12T03:36:03.585Z,3.28
2023-02-12T03:41:08.817Z,3.00
2023-02-12T03:46:32.216Z,2.83
2023-02-12T03:51:38.321Z,2.53
2023-02-12T03:56:52.238Z,2.40
2023-02-12T04:01:57.742Z,2.23
2023-02-12T04:07:01.092Z,2.30
2023-02-12T04:12:20.335Z,2.40
2023-02-12T04:17:46.825Z,2.80
2023-02-12T04:23:31.021Z,2.17
2023-02-12T04:28:57.237Z,2.67
2023-02-12T04:34:14.728Z,2.40
2023-02-12T04:39:22.560Z,2.10
2023-02-12T04:44:27.451Z,1.80
2023-02-12T04:49:30.448Z,1.70
2023-02-12T04:54:33.144Z,1.40
2023-02-12T04:59:35.782Z,1.53
2023-02-12T05:04:38.363Z,1.40
2023-02-12T05:09:40.920Z,1.30
2023-02-12T05:14:43.518Z,1.77
2023-02-12T05:19:48.056Z,1.80
2023-02-12T05:24:50.770Z,1.37
2023-02-12T05:29:53.544Z,1.80
2023-02-12T05:34:56.153Z,1.23
2023-02-12T05:39:58.673Z,1.20
2023-02-12T05:45:01.407Z,1.20
2023-02-12T05:50:06.443Z,1.13
2023-02-12T05:55:09.052Z,1.20
2023-02-12T06:00:12.366Z,1.40
2023-02-12T06:05:14.882Z,1.30
2023-02-12T06:10:17.603Z,0.93
2023-02-12T06:15:20.189Z,1.10
2023-02-12T06:20:22.785Z,1.50
2023-02-12T06:25:25.720Z,1.23
2023-02-12T06:30:28.374Z,1.10
2023-02-12T06:35:30.975Z,1.20
2023-02-12T06:40:33.765Z,1.53
2023-02-12T06:45:36.611Z,0.90
2023-02-12T06:50:39.157Z,1.20
2023-02-12T06:55:41.831Z,1.50
2023-02-12T07:00:44.446Z,0.90
2023-02-12T07:05:48.414Z,1.30
2023-02-12T07:10:51.097Z,1.20
2023-02-12T07:15:54.072Z,1.00
2023-02-12T07:20:57.258Z,1.30
2023-02-12T07:26:05.690Z,0.90
2023-02-12T07:31:14.193Z,1.17
2023-02-12T07:36:19.052Z,1.00
2023-02-12T07:41:27.159Z,0.70
2023-02-12T07:46:32.447Z,0.90
2023-02-12T07:51:37.256Z,1.30
2023-02-12T07:56:41.375Z,1.10
2023-02-12T08:01:48.210Z,0.83
2023-02-12T08:06:52.369Z,1.00
2023-02-12T08:11:55.164Z,1.00
2023-02-12T08:16:58.069Z,0.90
2023-02-12T08:22:03.193Z,0.90
2023-02-12T08:27:05.764Z,0.83
2023-02-12T08:32:10.728Z,0.90
2023-02-12T08:37:13.491Z,0.70
2023-02-12T08:42:16.121Z,0.97
2023-02-12T08:47:19.582Z,0.80
2023-02-12T08:52:22.447Z,0.90
2023-02-12T08:57:25.122Z,0.90
2023-02-12T09:02:27.917Z,0.70
2023-02-12T09:07:30.787Z,0.80
2023-02-12T09:12:33.405Z,1.10
2023-02-12T09:17:36.100Z,1.00
2023-02-12T09:22:38.891Z,1.10
2023-02-12T09:27:41.514Z,0.90
2023-02-12T09:32:44.280Z,0.80
2023-02-12T09:37:46.883Z,1.10
2023-02-12T09:43:06.056Z,1.10
2023-02-12T09:48:14.894Z,1.10
2023-02-12T09:53:21.408Z,1.10
2023-02-12T09:58:29.924Z,1.00
2023-02-12T10:03:33.563Z,1.03
2023-02-12T10:08:57.546Z,2.10
2023-02-12T10:14:22.359Z,0.90
2023-02-12T10:19:50.417Z,1.23
2023-02-12T10:25:06.412Z,1.10
2023-02-12T10:31:01.613Z,0.80
2023-02-12T10:36:23.475Z,0.90
2023-02-12T10:41:30.307Z,0.90
2023-02-12T10:46:32.915Z,1.10
2023-02-12T10:51:55.664Z,0.90
2023-02-12T10:56:59.146Z,1.00
2023-02-12T11:02:02.113Z,0.67
2023-02-12T11:07:07.291Z,1.03
2023-02-12T11:12:41.105Z,0.93
2023-02-12T11:17:46.671Z,0.97
2023-02-12T11:22:57.530Z,1.13
2023-02-12T11:28:14.131Z,0.80
2023-02-12T11:33:42.976Z,1.37
2023-02-12T11:38:57.799Z,0.90
2023-02-12T11:44:03.099Z,1.10
2023-02-12T11:49:09.418Z,0.93
2023-02-12T11:54:23.179Z,1.10
2023-02-12T11:59:45.938Z,0.73
2023-02-12T12:04:52.112Z,1.00
2023-02-12T12:10:03.906Z,1.00
2023-02-12T12:20:47.385Z,0.90
2023-02-12T12:25:56.000Z,1.50
2023-02-12T12:31:19.392Z,0.80
2023-02-12T12:37:03.512Z,0.67
2023-02-12T12:42:26.166Z,0.53
2023-02-12T12:47:45.486Z,0.80
2023-02-12T12:52:51.256Z,0.90
2023-02-12T12:58:13.582Z,0.93
2023-02-12T13:03:37.634Z,0.93
2023-02-12T13:09:21.601Z,1.07
2023-02-12T13:14:42.419Z,1.13
2023-02-12T13:20:05.816Z,1.08
2023-02-12T13:25:46.254Z,1.87
2023-02-12T13:30:52.445Z,1.63
2023-02-12T13:36:00.629Z,0.90
2023-02-12T13:41:07.454Z,1.30
2023-02-12T13:46:40.575Z,0.93
2023-02-12T13:52:09.412Z,1.57
2023-02-12T13:57:18.318Z,1.40
2023-02-12T14:02:33.143Z,1.43
2023-02-12T14:07:45.631Z,1.20
2023-02-12T14:12:48.965Z,1.03
2023-02-12T14:17:57.260Z,1.17
2023-02-12T14:23:35.179Z,1.10
2023-02-12T14:29:06.949Z,1.40
2023-02-12T14:39:20.985Z,1.20
2023-02-12T14:49:48.548Z,1.00
2023-02-12T14:54:55.593Z,1.43
2023-02-12T15:00:20.735Z,1.20
2023-02-12T15:05:30.735Z,1.47
2023-02-12T15:10:46.504Z,1.50
2023-02-12T15:16:09.854Z,1.20
2023-02-12T15:21:22.095Z,1.67
2023-02-12T15:26:27.334Z,1.50
2023-02-12T15:31:32.494Z,1.30
2023-02-12T15:36:36.052Z,2.00
2023-02-12T15:41:40.494Z,1.30
2023-02-12T15:46:54.311Z,2.67
2023-02-12T15:51:58.064Z,1.40
2023-02-12T15:57:01.664Z,4.23
2023-02-12T16:02:04.677Z,4.00
2023-02-12T16:07:08.221Z,6.17
2023-02-12T16:12:14.862Z,2.40
2023-02-12T16:17:24.990Z,1.97
2023-02-12T16:22:43.980Z,1.37
2023-02-12T16:28:04.115Z,1.70
2023-02-12T16:33:34.248Z,1.40
2023-02-12T16:38:49.030Z,2.40
2023-02-12T16:44:16.014Z,1.73
2023-02-12T16:49:23.486Z,1.60
2023-02-12T16:54:31.494Z,2.27
2023-02-12T16:59:35.093Z,1.83
2023-02-12T17:04:37.755Z,1.80
2023-02-12T17:09:40.356Z,2.00
2023-02-12T17:14:43.034Z,2.00
2023-02-12T17:19:45.992Z,2.20
2023-02-12T17:24:51.523Z,2.13
2023-02-12T17:29:54.157Z,2.70
2023-02-12T17:34:56.741Z,2.10
2023-02-12T17:39:59.583Z,2.20
2023-02-12T17:45:02.216Z,2.00
2023-02-12T17:50:08.754Z,2.17
2023-02-12T17:55:13.820Z,2.00
2023-02-12T18:00:17.164Z,2.17
2023-02-12T18:05:19.866Z,1.90
2023-02-12T18:10:22.607Z,2.20
2023-02-12T18:15:25.339Z,1.80
2023-02-12T18:20:28.118Z,1.90
2023-02-12T18:25:30.764Z,1.73
2023-02-12T18:30:33.548Z,1.70
2023-02-12T18:35:37.174Z,2.13
2023-02-12T18:40:41.353Z,1.10
2023-02-12T18:45:43.986Z,1.57
2023-02-12T18:50:46.693Z,2.20
2023-02-12T18:55:49.269Z,1.33
2023-02-12T19:00:51.902Z,1.47
2023-02-12T19:06:02.167Z,1.67
2023-02-12T19:11:10.087Z,1.50
2023-02-12T19:16:16.213Z,1.67
2023-02-12T19:21:19.817Z,1.50
2023-02-12T19:26:23.547Z,1.70
2023-02-12T19:31:38.672Z,1.90
2023-02-12T19:36:41.949Z,1.40
2023-02-12T19:41:46.955Z,1.57
2023-02-12T19:46:49.862Z,1.90
2023-02-12T19:51:52.939Z,1.40
2023-02-12T19:56:55.702Z,2.13
2023-02-12T20:01:58.341Z,1.97
2023-02-12T20:07:01.036Z,1.30
2023-02-12T20:12:03.930Z,2.17
2023-02-12T20:17:06.546Z,1.50
2023-02-12T20:22:09.227Z,1.80
2023-02-12T20:27:12.195Z,1.57
2023-02-12T20:32:15.186Z,1.93
2023-02-12T20:37:18.940Z,1.73
2023-02-12T20:42:21.482Z,2.00
2023-02-12T20:47:28.821Z,1.50
2023-02-12T20:52:33.784Z,1.53
2023-02-12T20:57:37.642Z,2.23
2023-02-12T21:02:40.253Z,2.43
2023-02-12T21:07:42.963Z,1.80
2023-02-12T21:12:45.598Z,2.03
2023-02-12T21:17:48.219Z,2.10
2023-02-12T21:22:50.817Z,1.60
2023-02-12T21:27:53.432Z,1.33
2023-02-12T21:32:55.977Z,2.53
2023-02-12T21:37:58.644Z,1.70
2023-02-12T21:43:01.197Z,1.80
2023-02-12T21:48:03.890Z,1.70
2023-02-12T21:53:06.522Z,1.60
2023-02-12T21:58:09.109Z,1.37
2023-02-12T22:03:11.896Z,1.80
2023-02-12T22:08:14.512Z,1.67
2023-02-12T22:13:17.200Z,1.60
2023-02-12T22:18:19.890Z,1.57
2023-02-12T22:23:22.577Z,1.30
2023-02-12T22:28:25.197Z,1.50
2023-02-12T22:33:27.775Z,1.63
2023-02-12T22:38:30.689Z,1.40
2023-02-12T22:43:34.712Z,1.57
2023-02-12T22:48:37.357Z,1.60
2023-02-12T22:53:39.963Z,1.70
2023-02-12T22:58:42.848Z,1.90
2023-02-12T23:03:46.145Z,1.50
2023-02-12T23:08:54.487Z,1.50
2023-02-12T23:13:57.304Z,1.63
2023-02-12T23:19:01.476Z,1.67
2023-02-12T23:24:04.290Z,1.50
2023-02-12T23:29:06.933Z,1.50
2023-02-12T23:34:09.642Z,1.33
2023-02-12T23:39:13.010Z,1.33
2023-02-12T23:44:15.634Z,1.60
2023-02-12T23:49:18.689Z,1.43
2023-02-12T23:54:21.353Z,1.47
2023-02-12T23:59:25.942Z,1.37
